createdAt,value
2019-03-17T12:16:49.409Z,2.80
2019-03-17T12:18:50.573Z,3.00
2019-03-17T12:20:51.409Z,3.20
2019-03-17T12:22:52.288Z,3.10
2019-03-17T12:24:53.131Z,2.80
2019-03-17T12:26:53.970Z,3.10
2019-03-17T12:28:54.889Z,3.03
2019-03-17T12:30:55.805Z,3.10
2019-03-17T12:32:56.677Z,3.10
2019-03-17T12:34:57.508Z,3.03
2019-03-17T12:36:58.397Z,3.00
2019-03-17T12:38:59.236Z,3.07
2019-03-17T12:41:00.062Z,3.07
2019-03-17T12:43:00.934Z,3.13
2019-03-17T12:45:02.132Z,3.60
2019-03-17T12:47:03.259Z,3.00
2019-03-17T12:49:04.108Z,2.83
2019-03-17T12:51:04.964Z,3.03
2019-03-17T12:53:07.891Z,2.60
2019-03-17T12:55:08.536Z,3.10
2019-03-17T12:57:09.376Z,3.20
2019-03-17T12:59:10.211Z,2.87
2019-03-17T13:01:11.041Z,2.90
2019-03-17T13:03:11.889Z,2.93
2019-03-17T13:05:12.729Z,3.20
2019-03-17T13:07:13.579Z,3.20
2019-03-17T13:09:14.682Z,2.90
2019-03-17T13:11:15.537Z,3.17
2019-03-17T13:13:16.383Z,2.70
2019-03-17T13:15:17.224Z,3.17
2019-03-17T13:17:18.080Z,3.23
2019-03-17T13:19:18.968Z,2.93
2019-03-17T13:21:19.825Z,3.40
2019-03-17T13:23:20.672Z,3.00
2019-03-17T13:25:21.849Z,2.93
2019-03-17T13:27:22.725Z,3.67
2019-03-17T13:29:23.552Z,2.80
2019-03-17T13:31:24.376Z,2.63
2019-03-17T13:33:25.258Z,2.80
2019-03-17T13:35:26.088Z,3.10
2019-03-17T13:37:26.913Z,2.60
2019-03-17T13:39:27.760Z,3.37
2019-03-17T13:41:28.617Z,3.20
2019-03-17T13:43:29.440Z,3.10
2019-03-17T13:45:30.316Z,3.23
2019-03-17T13:47:31.300Z,3.20
2019-03-17T13:49:32.177Z,3.03
2019-03-17T13:51:33.005Z,3.50
2019-03-17T13:53:34.144Z,3.47
2019-03-17T13:55:35.012Z,3.40
2019-03-17T13:57:35.840Z,3.37
2019-03-17T13:59:36.933Z,3.23
2019-03-17T14:01:37.785Z,3.67
2019-03-17T14:03:38.657Z,3.40
2019-03-17T14:05:39.488Z,3.50
2019-03-17T14:07:40.313Z,3.70
2019-03-17T14:09:41.161Z,3.20
2019-03-17T14:11:41.983Z,3.20
2019-03-17T14:13:42.914Z,2.97
2019-03-17T14:15:43.742Z,2.90
2019-03-17T14:17:44.612Z,2.67
2019-03-17T14:19:45.791Z,2.43
2019-03-17T14:21:46.630Z,1.80
2019-03-17T14:23:47.467Z,2.23
2019-03-17T14:25:48.298Z,1.70
2019-03-17T14:27:49.182Z,2.00
2019-03-17T14:29:50.048Z,1.37
2019-03-17T14:31:51.190Z,1.90
2019-03-17T14:33:52.030Z,1.17
2019-03-17T14:35:52.877Z,1.40
2019-03-17T14:37:53.700Z,1.37
2019-03-17T14:39:54.548Z,1.30
2019-03-17T14:41:55.398Z,1.00
2019-03-17T14:43:56.224Z,0.93
2019-03-17T14:45:57.077Z,0.80
2019-03-17T14:47:57.892Z,0.80
2019-03-17T14:49:58.719Z,0.67
2019-03-17T14:51:59.622Z,0.80
2019-03-17T14:54:00.469Z,1.00
2019-03-17T14:56:01.284Z,0.80
2019-03-17T14:58:02.121Z,0.70
2019-03-17T15:00:02.966Z,0.90
2019-03-17T15:02:03.792Z,0.80
2019-03-17T15:04:04.661Z,1.10
2019-03-17T15:06:05.497Z,0.90
2019-03-17T15:08:06.360Z,1.00
2019-03-17T15:10:07.192Z,1.20
2019-03-17T15:12:08.041Z,1.00
2019-03-17T15:14:09.148Z,1.53
2019-03-17T15:16:09.988Z,0.97
2019-03-17T15:18:10.837Z,1.10
2019-03-17T15:20:11.717Z,1.17
2019-03-17T15:22:12.548Z,1.00
2019-03-17T15:24:13.404Z,1.10
2019-03-17T15:26:14.253Z,1.00
2019-03-17T15:28:15.460Z,1.20
2019-03-17T15:30:16.580Z,1.23
2019-03-17T15:32:17.436Z,1.10
2019-03-17T15:34:18.288Z,1.30
2019-03-17T15:36:19.148Z,1.20
2019-03-17T15:38:19.995Z,1.30
2019-03-17T15:40:20.857Z,1.20
2019-03-17T15:42:22.003Z,1.40
2019-03-17T15:44:23.119Z,2.77
2019-03-17T15:46:23.982Z,2.80
2019-03-17T15:48:24.815Z,1.37
2019-03-17T15:50:25.670Z,1.37
2019-03-17T15:52:26.505Z,1.57
2019-03-17T15:54:27.342Z,2.97
2019-03-17T15:56:28.201Z,3.20
2019-03-17T15:58:29.089Z,1.70
2019-03-17T16:00:29.973Z,1.70
2019-03-17T16:02:31.068Z,1.70
2019-03-17T16:04:31.905Z,1.87
2019-03-17T16:06:32.757Z,1.60
2019-03-17T16:08:33.590Z,1.67
2019-03-17T16:10:34.420Z,1.43
2019-03-17T16:12:35.276Z,1.70
2019-03-17T16:14:36.125Z,2.00
2019-03-17T16:16:37.222Z,1.90
2019-03-17T16:18:38.081Z,1.87
2019-03-17T16:20:38.917Z,2.10
2019-03-17T16:22:39.798Z,2.23
2019-03-17T16:24:40.902Z,1.87
2019-03-17T16:26:41.741Z,2.10
2019-03-17T16:28:42.573Z,2.80
2019-03-17T16:30:43.428Z,2.50
2019-03-17T16:32:44.362Z,2.20
2019-03-17T16:34:45.436Z,1.97
2019-03-17T16:36:46.281Z,2.50
2019-03-17T16:38:47.144Z,2.10
2019-03-17T16:40:48.000Z,2.30
2019-03-17T16:42:49.022Z,1.97
2019-03-17T16:44:50.179Z,1.90
2019-03-17T16:46:51.453Z,2.00
2019-03-17T16:48:52.345Z,2.10
2019-03-17T16:50:53.214Z,2.10
2019-03-17T16:52:54.161Z,1.80
2019-03-17T16:54:55.056Z,2.17
2019-03-17T16:56:55.904Z,1.90
2019-03-17T16:58:56.736Z,1.87
2019-03-17T17:00:57.569Z,2.03
2019-03-17T17:02:58.416Z,1.70
2019-03-17T17:04:59.277Z,1.57
2019-03-17T17:07:00.140Z,2.00
2019-03-17T17:09:00.979Z,2.10
2019-03-17T17:11:01.835Z,2.00
2019-03-17T17:13:03.188Z,2.20
2019-03-17T17:15:04.209Z,1.90
2019-03-17T17:17:05.031Z,2.20
2019-03-17T17:19:06.190Z,2.10
2019-03-17T17:21:07.048Z,2.27
2019-03-17T17:23:07.863Z,2.00
2019-03-17T17:25:08.701Z,2.10
2019-03-17T17:27:09.548Z,2.17
2019-03-17T17:29:10.424Z,2.30
2019-03-17T17:31:11.303Z,2.73
2019-03-17T17:33:12.128Z,2.40
2019-03-17T17:35:12.959Z,2.20
2019-03-17T17:37:13.806Z,2.40
2019-03-17T17:39:14.656Z,2.33
2019-03-17T17:41:15.489Z,2.43
2019-03-17T17:43:16.601Z,2.03
2019-03-17T17:45:17.464Z,2.40
2019-03-17T17:47:18.297Z,2.23
2019-03-17T17:49:19.408Z,2.63
2019-03-17T17:51:20.249Z,2.33
2019-03-17T17:53:21.080Z,2.20
2019-03-17T17:55:21.936Z,2.30
2019-03-17T17:57:22.804Z,2.20
2019-03-17T17:59:23.635Z,2.20
2019-03-17T18:01:24.497Z,2.43
2019-03-17T18:03:25.332Z,2.57
2019-03-17T18:05:26.167Z,2.30
2019-03-17T18:07:27.068Z,2.40
2019-03-17T18:09:27.909Z,2.23
2019-03-17T18:11:28.875Z,2.37
2019-03-17T18:13:29.812Z,2.30
2019-03-17T18:15:30.640Z,2.20
2019-03-17T18:17:31.505Z,2.33
2019-03-17T18:19:32.592Z,2.70
2019-03-17T18:21:33.665Z,2.60
2019-03-17T18:23:34.524Z,2.70
2019-03-17T18:25:35.355Z,3.30
2019-03-17T18:27:36.196Z,2.30
2019-03-17T18:29:37.465Z,2.00
2019-03-17T18:31:38.329Z,2.10
2019-03-17T18:33:39.172Z,2.23
2019-03-17T18:35:40.102Z,2.07
2019-03-17T18:37:41.070Z,2.10
2019-03-17T18:39:41.888Z,2.20
2019-03-17T18:41:42.991Z,2.03
2019-03-17T18:43:43.953Z,2.00
2019-03-17T18:45:45.050Z,2.30
2019-03-17T18:47:46.164Z,2.20
2019-03-17T18:49:47.129Z,2.20
2019-03-17T18:51:48.009Z,2.30
2019-03-17T18:53:48.864Z,2.20
2019-03-17T18:55:49.704Z,2.27
2019-03-17T18:57:50.564Z,2.70
2019-03-17T18:59:51.403Z,2.70
2019-03-17T19:01:52.232Z,2.90
2019-03-17T19:03:53.100Z,2.70
2019-03-17T19:05:53.920Z,2.80
2019-03-17T19:07:54.755Z,2.47
2019-03-17T19:09:55.609Z,2.57
2019-03-17T19:11:56.441Z,3.20
2019-03-17T19:13:57.285Z,2.70
2019-03-17T19:15:58.133Z,2.60
2019-03-17T19:17:58.972Z,2.73
2019-03-17T19:19:59.816Z,2.43
2019-03-17T19:22:00.662Z,2.40
2019-03-17T19:24:01.501Z,2.57
2019-03-17T19:26:02.330Z,2.67
2019-03-17T19:28:03.183Z,2.30
2019-03-17T19:30:04.028Z,2.50
2019-03-17T19:32:04.864Z,2.30
2019-03-17T19:34:05.741Z,2.40
2019-03-17T19:36:06.602Z,2.47
2019-03-17T19:38:07.451Z,2.47
2019-03-17T19:40:08.318Z,2.53
2019-03-17T19:42:09.411Z,2.30
2019-03-17T19:44:10.254Z,2.60
2019-03-17T19:46:11.102Z,2.50
2019-03-17T19:48:11.948Z,2.47
2019-03-17T19:50:12.876Z,2.57
2019-03-17T19:52:13.714Z,2.60
2019-03-17T19:54:14.577Z,2.60
2019-03-17T19:56:15.421Z,2.30
2019-03-17T19:58:16.289Z,2.37
2019-03-17T20:00:17.133Z,2.50
2019-03-17T20:02:17.971Z,2.30
2019-03-17T20:04:30.142Z,2.43
2019-03-17T20:06:21.567Z,2.20
2019-03-17T20:08:22.430Z,2.23
2019-03-17T20:10:23.365Z,2.43
2019-03-17T20:12:24.198Z,2.50
2019-03-17T20:14:25.020Z,2.30
2019-03-17T20:16:25.989Z,2.30
2019-03-17T20:18:26.921Z,2.10
2019-03-17T20:20:27.844Z,2.00
2019-03-17T20:22:28.660Z,2.00
2019-03-17T20:24:29.508Z,2.90
2019-03-17T20:26:30.614Z,2.87
2019-03-17T20:28:31.473Z,2.93
2019-03-17T20:30:32.294Z,3.20
2019-03-17T20:32:33.116Z,3.07
2019-03-17T20:34:35.710Z,3.23
2019-03-17T20:36:36.792Z,3.10
2019-03-17T20:38:37.641Z,3.13
2019-03-17T20:40:38.473Z,3.30
2019-03-17T20:42:39.326Z,3.10
2019-03-17T20:44:40.161Z,3.47
2019-03-17T20:46:41.006Z,3.23
2019-03-17T20:48:41.849Z,2.93
2019-03-17T20:50:42.682Z,2.70
2019-03-17T20:52:43.516Z,2.90
2019-03-17T20:54:44.859Z,3.17
2019-03-17T20:56:45.704Z,3.40
2019-03-17T20:58:46.546Z,3.50
2019-03-17T21:00:47.399Z,2.90
2019-03-17T21:02:48.257Z,2.60
2019-03-17T21:04:49.127Z,3.20
2019-03-17T21:06:50.019Z,3.07
2019-03-17T21:08:50.866Z,2.90
2019-03-17T21:10:51.711Z,3.10
2019-03-17T21:12:52.602Z,2.87
2019-03-17T21:14:53.491Z,2.70
2019-03-17T21:16:54.351Z,3.10
2019-03-17T21:18:55.194Z,2.87
2019-03-17T21:20:56.285Z,3.87
2019-03-17T21:22:57.145Z,3.67
2019-03-17T21:24:58.056Z,3.23
2019-03-17T21:26:59.007Z,3.20
2019-03-17T21:28:59.881Z,2.80
2019-03-17T21:31:00.744Z,2.90
2019-03-17T21:33:01.621Z,3.20
2019-03-17T21:35:02.601Z,3.27
2019-03-17T21:37:03.437Z,2.90
2019-03-17T21:39:04.282Z,3.53
2019-03-17T21:41:07.237Z,3.10
2019-03-17T21:43:07.894Z,3.40
2019-03-17T21:45:08.721Z,3.20
2019-03-17T21:47:09.555Z,2.93
2019-03-17T21:49:10.428Z,3.60
2019-03-17T21:51:11.268Z,3.67
2019-03-17T21:53:12.092Z,2.90
2019-03-17T21:55:12.954Z,2.90
2019-03-17T21:57:13.801Z,2.67
2019-03-17T21:59:14.659Z,2.53
2019-03-17T22:01:15.494Z,2.50
2019-03-17T22:03:16.344Z,2.60
2019-03-17T22:05:17.185Z,2.20
2019-03-17T22:07:18.026Z,2.63
2019-03-17T22:09:18.889Z,2.50
2019-03-17T22:11:19.713Z,2.40
2019-03-17T22:13:20.821Z,2.13
2019-03-17T22:15:21.665Z,2.40
2019-03-17T22:17:22.496Z,2.23
2019-03-17T22:19:23.635Z,1.97
2019-03-17T22:21:24.469Z,2.10
2019-03-17T22:23:25.589Z,2.20
2019-03-17T22:25:26.449Z,1.97
2019-03-17T22:27:27.311Z,2.00
2019-03-17T22:29:28.153Z,1.90
2019-03-17T22:31:29.052Z,1.97
2019-03-17T22:33:29.967Z,2.00
2019-03-17T22:35:30.789Z,2.10
2019-03-17T22:37:31.940Z,1.90
2019-03-17T22:39:32.812Z,1.77
2019-03-17T22:41:33.636Z,2.00
2019-03-17T22:43:34.488Z,1.80
2019-03-17T22:45:35.340Z,1.63
2019-03-17T22:47:36.199Z,1.70
2019-03-17T22:49:37.137Z,1.80
2019-03-17T22:51:37.984Z,1.60
2019-03-17T22:53:38.863Z,1.70
2019-03-17T22:55:39.700Z,1.70
2019-03-17T22:57:40.904Z,1.80
2019-03-17T22:59:41.743Z,1.80
2019-03-17T23:01:42.597Z,2.10
2019-03-17T23:03:43.452Z,2.20
2019-03-17T23:05:44.285Z,2.07
2019-03-17T23:07:45.115Z,2.00
2019-03-17T23:09:45.969Z,1.90
2019-03-17T23:11:47.124Z,2.17
2019-03-17T23:13:47.965Z,2.30
2019-03-17T23:15:48.796Z,2.13
2019-03-17T23:17:49.641Z,2.07
2019-03-17T23:19:50.501Z,2.10
2019-03-17T23:21:51.340Z,2.13
2019-03-17T23:23:52.523Z,2.40
2019-03-17T23:25:53.379Z,2.57
2019-03-17T23:27:54.228Z,2.10
2019-03-17T23:29:55.069Z,2.67
2019-03-17T23:31:55.913Z,2.40
2019-03-17T23:33:56.779Z,2.30
2019-03-17T23:35:57.633Z,2.10
2019-03-17T23:37:58.756Z,2.23
2019-03-17T23:39:59.598Z,2.33
2019-03-17T23:42:00.477Z,2.47
2019-03-17T23:44:01.565Z,2.70
2019-03-17T23:46:02.402Z,2.37
2019-03-17T23:48:03.265Z,2.27
2019-03-17T23:50:04.106Z,2.30
2019-03-17T23:52:04.956Z,2.30
2019-03-17T23:54:06.036Z,2.40
2019-03-17T23:56:06.905Z,2.10
2019-03-17T23:58:07.757Z,2.33
